Terminal Aerodrome Forecast
Issued by NWS

Home | Current Version | Previous Version | Graphics & Text | Print | Product List | Glossary On
Versions: 1 2 3 4 5 6 7 8 9 10 11 12 13 14 15 16 17 18 19 20 21
440
FTUS43 KGRB 260520
TAFCWA
TAF
KCWA 260520Z 2606/2706 03008KT P6SM -SHRA OVC050
      TEMPO 2608/2611 5SM SHRA BR BKN025
     FM261100 09007KT 5SM SHRA BR OVC015
      TEMPO 2612/2614 BKN007
     FM261400 15009KT 4SM SHRA BR OVC007
     FM261700 21008KT 6SM -SHRA OVC015
     FM262100 27008KT P6SM VCSH OVC015
     FM270200 32007KT P6SM OVC015
      AMD LTD TO CLD VIS AND WIND TIL 261100=

USA.gov is the U.S. government's official web portal to all federal, state and local government web resources and services.